sensor_id;sensor_type;location;lat;lon;timestamp;P1;durP1;ratioP1;P2;durP2;ratioP2
61644;SDS011;47553;52.428;13.382;2022-09-09T00:01:49;8.93;;;4.68;;
61644;SDS011;47553;52.428;13.382;2022-09-09T00:03:56;8.30;;;4.50;;
61644;SDS011;47553;52.428;13.382;2022-09-09T00:06:02;9.20;;;5.00;;
61644;SDS011;47553;52.428;13.382;2022-09-09T00:08:11;8.80;;;4.82;;
61644;SDS011;47553;52.428;13.382;2022-09-09T00:10:20;8.70;;;4.93;;
61644;SDS011;47553;52.428;13.382;2022-09-09T00:12:37;9.15;;;4.70;;
61644;SDS011;47553;52.428;13.382;2022-09-09T00:14:50;9.75;;;5.07;;
61644;SDS011;47553;52.428;13.382;2022-09-09T00:16:58;10.38;;;5.07;;
61644;SDS011;47553;52.428;13.382;2022-09-09T00:19:05;8.43;;;4.60;;
61644;SDS011;47553;52.428;13.382;2022-09-09T00:21:14;8.68;;;4.68;;
61644;SDS011;47553;52.428;13.382;2022-09-09T00:23:19;8.27;;;4.55;;
61644;SDS011;47553;52.428;13.382;2022-09-09T00:25:27;8.35;;;4.35;;
61644;SDS011;47553;52.428;13.382;2022-09-09T00:27:36;7.72;;;4.43;;
61644;SDS011;47553;52.428;13.382;2022-09-09T00:31:45;7.47;;;4.22;;
61644;SDS011;47553;52.428;13.382;2022-09-09T00:33:48;9.15;;;4.55;;
61644;SDS011;47553;52.428;13.382;2022-09-09T00:35:51;8.30;;;4.32;;
61644;SDS011;47553;52.428;13.382;2022-09-09T00:37:57;10.63;;;4.32;;
61644;SDS011;47553;52.428;13.382;2022-09-09T00:40:06;7.43;;;4.28;;
61644;SDS011;47553;52.428;13.382;2022-09-09T00:42:18;7.45;;;4.00;;
61644;SDS011;47553;52.428;13.382;2022-09-09T00:44:27;6.80;;;3.85;;
61644;SDS011;47553;52.428;13.382;2022-09-09T00:46:40;6.90;;;3.88;;
61644;SDS011;47553;52.428;13.382;2022-09-09T00:48:54;7.95;;;4.18;;
61644;SDS011;47553;52.428;13.382;2022-09-09T00:51:02;8.15;;;4.25;;
61644;SDS011;47553;52.428;13.382;2022-09-09T00:53:12;8.02;;;4.18;;
61644;SDS011;47553;52.428;13.382;2022-09-09T00:55:26;8.27;;;4.68;;
61644;SDS011;47553;52.428;13.382;2022-09-09T00:57:35;7.35;;;4.20;;
61644;SDS011;47553;52.428;13.382;2022-09-09T00:59:40;8.43;;;4.47;;
61644;SDS011;47553;52.428;13.382;2022-09-09T01:01:47;7.93;;;4.28;;
61644;SDS011;47553;52.428;13.382;2022-09-09T01:03:52;7.85;;;3.83;;
61644;SDS011;47553;52.428;13.382;2022-09-09T01:05:59;10.82;;;4.65;;
61644;SDS011;47553;52.428;13.382;2022-09-09T01:08:05;9.90;;;4.90;;
61644;SDS011;47553;52.428;13.382;2022-09-09T01:10:17;8.95;;;4.30;;
61644;SDS011;47553;52.428;13.382;2022-09-09T01:12:34;10.45;;;4.78;;
61644;SDS011;47553;52.428;13.382;2022-09-09T01:14:42;8.75;;;5.03;;
61644;SDS011;47553;52.428;13.382;2022-09-09T01:16:48;8.73;;;4.28;;
61644;SDS011;47553;52.428;13.382;2022-09-09T01:18:51;8.23;;;4.20;;
61644;SDS011;47553;52.428;13.382;2022-09-09T01:20:59;9.25;;;4.57;;
61644;SDS011;47553;52.428;13.382;2022-09-09T01:23:12;7.28;;;4.00;;
61644;SDS011;47553;52.428;13.382;2022-09-09T01:26:02;7.53;;;3.90;;
61644;SDS011;47553;52.428;13.382;2022-09-09T01:28:19;6.68;;;3.70;;
61644;SDS011;47553;52.428;13.382;2022-09-09T01:30:23;6.68;;;3.72;;
61644;SDS011;47553;52.428;13.382;2022-09-09T01:32:40;7.70;;;3.88;;
61644;SDS011;47553;52.428;13.382;2022-09-09T01:34:43;6.57;;;3.30;;
61644;SDS011;47553;52.428;13.382;2022-09-09T01:36:45;7.97;;;3.78;;
61644;SDS011;47553;52.428;13.382;2022-09-09T01:38:52;8.85;;;3.65;;
61644;SDS011;47553;52.428;13.382;2022-09-09T01:40:55;7.10;;;3.60;;
61644;SDS011;47553;52.428;13.382;2022-09-09T01:42:57;7.18;;;3.45;;
61644;SDS011;47553;52.428;13.382;2022-09-09T01:44:59;8.02;;;3.58;;
61644;SDS011;47553;52.428;13.382;2022-09-09T01:47:00;7.47;;;3.63;;
61644;SDS011;47553;52.428;13.382;2022-09-09T01:49:03;6.88;;;4.00;;
61644;SDS011;47553;52.428;13.382;2022-09-09T01:51:07;6.97;;;3.65;;
61644;SDS011;47553;52.428;13.382;2022-09-09T01:53:09;8.40;;;4.25;;
61644;SDS011;47553;52.428;13.382;2022-09-09T01:55:12;7.22;;;3.53;;
61644;SDS011;47553;52.428;13.382;2022-09-09T01:57:18;7.82;;;3.90;;
61644;SDS011;47553;52.428;13.382;2022-09-09T02:01:52;9.20;;;4.80;;
61644;SDS011;47553;52.428;13.382;2022-09-09T02:04:07;8.68;;;4.35;;
61644;SDS011;47553;52.428;13.382;2022-09-09T02:06:22;8.30;;;4.60;;
61644;SDS011;47553;52.428;13.382;2022-09-09T02:08:29;9.80;;;4.75;;
61644;SDS011;47553;52.428;13.382;2022-09-09T02:10:41;10.52;;;5.20;;
61644;SDS011;47553;52.428;13.382;2022-09-09T02:12:49;9.68;;;4.75;;
61644;SDS011;47553;52.428;13.382;2022-09-09T02:14:55;10.88;;;5.13;;
61644;SDS011;47553;52.428;13.382;2022-09-09T02:17:01;9.07;;;4.78;;
61644;SDS011;47553;52.428;13.382;2022-09-09T02:19:09;7.85;;;4.20;;
61644;SDS011;47553;52.428;13.382;2022-09-09T02:21:13;8.85;;;4.20;;
61644;SDS011;47553;52.428;13.382;2022-09-09T02:23:16;9.50;;;4.30;;
61644;SDS011;47553;52.428;13.382;2022-09-09T02:25:19;9.95;;;4.45;;
61644;SDS011;47553;52.428;13.382;2022-09-09T02:27:23;8.43;;;4.30;;
61644;SDS011;47553;52.428;13.382;2022-09-09T02:29:26;9.95;;;4.60;;
61644;SDS011;47553;52.428;13.382;2022-09-09T02:31:31;10.00;;;5.00;;
61644;SDS011;47553;52.428;13.382;2022-09-09T02:33:35;7.95;;;4.00;;
61644;SDS011;47553;52.428;13.382;2022-09-09T02:35:41;8.73;;;4.75;;
61644;SDS011;47553;52.428;13.382;2022-09-09T02:37:44;8.60;;;4.28;;
61644;SDS011;47553;52.428;13.382;2022-09-09T02:39:46;8.35;;;4.30;;
61644;SDS011;47553;52.428;13.382;2022-09-09T02:41:48;7.95;;;3.95;;
61644;SDS011;47553;52.428;13.382;2022-09-09T02:43:49;7.38;;;3.90;;
61644;SDS011;47553;52.428;13.382;2022-09-09T02:45:53;7.55;;;3.88;;
61644;SDS011;47553;52.428;13.382;2022-09-09T02:48:05;8.80;;;4.63;;
61644;SDS011;47553;52.428;13.382;2022-09-09T02:50:12;8.30;;;4.38;;
61644;SDS011;47553;52.428;13.382;2022-09-09T02:52:18;7.93;;;4.00;;
61644;SDS011;47553;52.428;13.382;2022-09-09T02:54:22;9.85;;;4.50;;
61644;SDS011;47553;52.428;13.382;2022-09-09T02:56:29;7.13;;;3.88;;
61644;SDS011;47553;52.428;13.382;2022-09-09T02:58:34;8.95;;;4.35;;
61644;SDS011;47553;52.428;13.382;2022-09-09T03:00:37;9.52;;;4.28;;
61644;SDS011;47553;52.428;13.382;2022-09-09T03:02:41;11.32;;;4.63;;
61644;SDS011;47553;52.428;13.382;2022-09-09T03:04:43;7.68;;;4.50;;
61644;SDS011;47553;52.428;13.382;2022-09-09T03:06:44;8.15;;;4.32;;
61644;SDS011;47553;52.428;13.382;2022-09-09T03:08:46;9.23;;;4.20;;
61644;SDS011;47553;52.428;13.382;2022-09-09T03:10:49;7.95;;;4.30;;
61644;SDS011;47553;52.428;13.382;2022-09-09T03:12:51;9.40;;;4.40;;
61644;SDS011;47553;52.428;13.382;2022-09-09T03:14:52;7.63;;;4.30;;
61644;SDS011;47553;52.428;13.382;2022-09-09T03:16:54;9.27;;;5.10;;
61644;SDS011;47553;52.428;13.382;2022-09-09T03:18:57;9.27;;;4.38;;
61644;SDS011;47553;52.428;13.382;2022-09-09T03:20:58;10.70;;;4.10;;
61644;SDS011;47553;52.428;13.382;2022-09-09T03:23:00;8.18;;;4.35;;
61644;SDS011;47553;52.428;13.382;2022-09-09T03:25:01;8.07;;;4.30;;
61644;SDS011;47553;52.428;13.382;2022-09-09T03:27:03;8.55;;;4.72;;
61644;SDS011;47553;52.428;13.382;2022-09-09T03:29:04;9.75;;;5.10;;
61644;SDS011;47553;52.428;13.382;2022-09-09T03:31:06;8.82;;;4.68;;
61644;SDS011;47553;52.428;13.382;2022-09-09T03:33:07;8.27;;;4.43;;
61644;SDS011;47553;52.428;13.382;2022-09-09T03:35:10;7.78;;;4.35;;
61644;SDS011;47553;52.428;13.382;2022-09-09T03:37:12;7.88;;;4.47;;
61644;SDS011;47553;52.428;13.382;2022-09-09T03:39:13;8.60;;;4.20;;
61644;SDS011;47553;52.428;13.382;2022-09-09T03:41:15;8.93;;;4.22;;
61644;SDS011;47553;52.428;13.382;2022-09-09T03:43:16;8.55;;;4.43;;
61644;SDS011;47553;52.428;13.382;2022-09-09T03:45:18;9.32;;;4.60;;
61644;SDS011;47553;52.428;13.382;2022-09-09T03:47:20;9.40;;;4.90;;
61644;SDS011;47553;52.428;13.382;2022-09-09T03:49:22;8.30;;;4.32;;
61644;SDS011;47553;52.428;13.382;2022-09-09T03:51:24;7.55;;;4.13;;
61644;SDS011;47553;52.428;13.382;2022-09-09T03:53:26;8.32;;;4.57;;
61644;SDS011;47553;52.428;13.382;2022-09-09T03:55:28;8.60;;;4.65;;
61644;SDS011;47553;52.428;13.382;2022-09-09T03:57:29;8.55;;;4.28;;
61644;SDS011;47553;52.428;13.382;2022-09-09T03:59:31;8.82;;;4.60;;
61644;SDS011;47553;52.428;13.382;2022-09-09T04:01:32;7.18;;;4.22;;
61644;SDS011;47553;52.428;13.382;2022-09-09T04:03:34;8.20;;;4.80;;
61644;SDS011;47553;52.428;13.382;2022-09-09T04:05:36;9.32;;;4.70;;
61644;SDS011;47553;52.428;13.382;2022-09-09T04:07:38;9.85;;;4.82;;
61644;SDS011;47553;52.428;13.382;2022-09-09T04:09:40;11.05;;;5.50;;
61644;SDS011;47553;52.428;13.382;2022-09-09T04:11:41;9.27;;;4.82;;
61644;SDS011;47553;52.428;13.382;2022-09-09T04:13:43;8.85;;;5.05;;
61644;SDS011;47553;52.428;13.382;2022-09-09T04:15:49;9.63;;;4.90;;
61644;SDS011;47553;52.428;13.382;2022-09-09T04:17:52;8.35;;;4.55;;
61644;SDS011;47553;52.428;13.382;2022-09-09T04:19:53;11.00;;;4.40;;
61644;SDS011;47553;52.428;13.382;2022-09-09T04:21:55;8.90;;;4.93;;
61644;SDS011;47553;52.428;13.382;2022-09-09T04:23:58;9.43;;;4.38;;
61644;SDS011;47553;52.428;13.382;2022-09-09T04:26:00;8.23;;;4.35;;
61644;SDS011;47553;52.428;13.382;2022-09-09T04:28:02;9.27;;;4.90;;
61644;SDS011;47553;52.428;13.382;2022-09-09T04:30:04;8.85;;;4.57;;
61644;SDS011;47553;52.428;13.382;2022-09-09T04:32:06;8.15;;;4.15;;
61644;SDS011;47553;52.428;13.382;2022-09-09T04:34:07;9.02;;;4.70;;
61644;SDS011;47553;52.428;13.382;2022-09-09T04:36:09;7.43;;;4.55;;
61644;SDS011;47553;52.428;13.382;2022-09-09T04:38:10;10.20;;;4.70;;
61644;SDS011;47553;52.428;13.382;2022-09-09T04:40:13;9.18;;;4.95;;
61644;SDS011;47553;52.428;13.382;2022-09-09T04:42:15;9.48;;;5.13;;
61644;SDS011;47553;52.428;13.382;2022-09-09T04:44:17;11.02;;;4.70;;
61644;SDS011;47553;52.428;13.382;2022-09-09T04:46:18;11.10;;;5.00;;
61644;SDS011;47553;52.428;13.382;2022-09-09T04:48:20;8.43;;;4.63;;
61644;SDS011;47553;52.428;13.382;2022-09-09T04:50:22;8.43;;;4.45;;
61644;SDS011;47553;52.428;13.382;2022-09-09T04:52:23;8.07;;;3.95;;
61644;SDS011;47553;52.428;13.382;2022-09-09T04:54:25;9.23;;;3.97;;
61644;SDS011;47553;52.428;13.382;2022-09-09T04:56:28;7.85;;;4.43;;
61644;SDS011;47553;52.428;13.382;2022-09-09T04:58:29;10.20;;;4.28;;
61644;SDS011;47553;52.428;13.382;2022-09-09T05:00:31;8.48;;;4.35;;
61644;SDS011;47553;52.428;13.382;2022-09-09T05:02:33;8.95;;;4.25;;
61644;SDS011;47553;52.428;13.382;2022-09-09T05:04:38;8.82;;;4.00;;
61644;SDS011;47553;52.428;13.382;2022-09-09T05:06:39;7.22;;;3.88;;
61644;SDS011;47553;52.428;13.382;2022-09-09T05:08:41;9.68;;;4.07;;
61644;SDS011;47553;52.428;13.382;2022-09-09T05:10:44;8.85;;;3.70;;
61644;SDS011;47553;52.428;13.382;2022-09-09T05:12:53;9.32;;;4.53;;
61644;SDS011;47553;52.428;13.382;2022-09-09T05:14:54;7.93;;;3.88;;
61644;SDS011;47553;52.428;13.382;2022-09-09T05:16:56;7.10;;;3.83;;
61644;SDS011;47553;52.428;13.382;2022-09-09T05:18:57;9.45;;;4.05;;
61644;SDS011;47553;52.428;13.382;2022-09-09T05:20:59;9.38;;;3.83;;
61644;SDS011;47553;52.428;13.382;2022-09-09T05:23:00;7.57;;;4.05;;
61644;SDS011;47553;52.428;13.382;2022-09-09T05:25:02;7.30;;;3.65;;
61644;SDS011;47553;52.428;13.382;2022-09-09T05:27:04;7.85;;;3.83;;
61644;SDS011;47553;52.428;13.382;2022-09-09T05:29:07;8.13;;;3.60;;
61644;SDS011;47553;52.428;13.382;2022-09-09T05:31:09;9.00;;;3.65;;
61644;SDS011;47553;52.428;13.382;2022-09-09T05:33:12;5.75;;;2.60;;
61644;SDS011;47553;52.428;13.382;2022-09-09T05:35:13;7.25;;;3.17;;
61644;SDS011;47553;52.428;13.382;2022-09-09T05:37:15;7.82;;;3.00;;
61644;SDS011;47553;52.428;13.382;2022-09-09T05:39:17;5.53;;;2.63;;
61644;SDS011;47553;52.428;13.382;2022-09-09T05:41:19;6.70;;;2.42;;
61644;SDS011;47553;52.428;13.382;2022-09-09T05:43:20;8.60;;;2.70;;
61644;SDS011;47553;52.428;13.382;2022-09-09T05:45:23;6.03;;;2.75;;
61644;SDS011;47553;52.428;13.382;2022-09-09T05:47:25;7.53;;;3.00;;
61644;SDS011;47553;52.428;13.382;2022-09-09T05:49:26;6.47;;;2.72;;
61644;SDS011;47553;52.428;13.382;2022-09-09T05:51:28;8.75;;;2.67;;
61644;SDS011;47553;52.428;13.382;2022-09-09T05:53:30;6.10;;;2.75;;
61644;SDS011;47553;52.428;13.382;2022-09-09T05:55:32;7.10;;;3.30;;
61644;SDS011;47553;52.428;13.382;2022-09-09T05:57:33;9.50;;;3.35;;
61644;SDS011;47553;52.428;13.382;2022-09-09T05:59:35;8.38;;;3.30;;
61644;SDS011;47553;52.428;13.382;2022-09-09T06:01:38;8.70;;;3.30;;
61644;SDS011;47553;52.428;13.382;2022-09-09T06:03:40;6.70;;;2.63;;
61644;SDS011;47553;52.428;13.382;2022-09-09T06:05:44;9.50;;;3.00;;
61644;SDS011;47553;52.428;13.382;2022-09-09T06:07:45;7.38;;;3.03;;
61644;SDS011;47553;52.428;13.382;2022-09-09T06:09:47;8.20;;;3.45;;
61644;SDS011;47553;52.428;13.382;2022-09-09T06:11:48;10.70;;;3.40;;
61644;SDS011;47553;52.428;13.382;2022-09-09T06:13:50;6.63;;;2.90;;
61644;SDS011;47553;52.428;13.382;2022-09-09T06:15:52;9.43;;;3.13;;
61644;SDS011;47553;52.428;13.382;2022-09-09T06:17:55;8.43;;;3.10;;
61644;SDS011;47553;52.428;13.382;2022-09-09T06:19:56;8.05;;;3.13;;
61644;SDS011;47553;52.428;13.382;2022-09-09T06:21:58;7.75;;;3.45;;
61644;SDS011;47553;52.428;13.382;2022-09-09T06:23:59;6.82;;;3.28;;
61644;SDS011;47553;52.428;13.382;2022-09-09T06:26:02;8.40;;;2.95;;
61644;SDS011;47553;52.428;13.382;2022-09-09T06:28:05;6.55;;;3.00;;
61644;SDS011;47553;52.428;13.382;2022-09-09T06:30:07;8.50;;;3.15;;
61644;SDS011;47553;52.428;13.382;2022-09-09T06:32:09;7.10;;;2.70;;
61644;SDS011;47553;52.428;13.382;2022-09-09T06:34:12;6.70;;;2.63;;
61644;SDS011;47553;52.428;13.382;2022-09-09T06:36:15;7.85;;;3.42;;
61644;SDS011;47553;52.428;13.382;2022-09-09T06:38:17;7.05;;;3.10;;
61644;SDS011;47553;52.428;13.382;2022-09-09T06:40:19;7.65;;;2.88;;
61644;SDS011;47553;52.428;13.382;2022-09-09T06:42:21;8.40;;;3.15;;
61644;SDS011;47553;52.428;13.382;2022-09-09T06:44:22;11.80;;;3.10;;
61644;SDS011;47553;52.428;13.382;2022-09-09T06:46:25;7.95;;;3.28;;
61644;SDS011;47553;52.428;13.382;2022-09-09T06:48:28;5.78;;;2.67;;
61644;SDS011;47553;52.428;13.382;2022-09-09T06:50:31;5.03;;;2.50;;
61644;SDS011;47553;52.428;13.382;2022-09-09T06:52:32;9.65;;;3.35;;
61644;SDS011;47553;52.428;13.382;2022-09-09T06:54:34;8.55;;;3.45;;
61644;SDS011;47553;52.428;13.382;2022-09-09T06:56:36;8.95;;;2.90;;
61644;SDS011;47553;52.428;13.382;2022-09-09T06:58:39;5.53;;;2.50;;
61644;SDS011;47553;52.428;13.382;2022-09-09T07:00:41;6.22;;;2.78;;
61644;SDS011;47553;52.428;13.382;2022-09-09T07:02:43;8.63;;;2.75;;
61644;SDS011;47553;52.428;13.382;2022-09-09T07:04:44;9.43;;;3.08;;
61644;SDS011;47553;52.428;13.382;2022-09-09T07:06:47;6.30;;;2.90;;
61644;SDS011;47553;52.428;13.382;2022-09-09T07:08:49;8.73;;;2.97;;
61644;SDS011;47553;52.428;13.382;2022-09-09T07:11:01;7.20;;;2.80;;
61644;SDS011;47553;52.428;13.382;2022-09-09T07:13:03;7.07;;;3.00;;
61644;SDS011;47553;52.428;13.382;2022-09-09T07:15:05;6.82;;;2.20;;
61644;SDS011;47553;52.428;13.382;2022-09-09T07:17:07;7.50;;;2.50;;
61644;SDS011;47553;52.428;13.382;2022-09-09T07:19:08;7.25;;;2.75;;
61644;SDS011;47553;52.428;13.382;2022-09-09T07:21:11;6.57;;;2.30;;
61644;SDS011;47553;52.428;13.382;2022-09-09T07:23:15;6.45;;;2.88;;
61644;SDS011;47553;52.428;13.382;2022-09-09T07:25:16;7.97;;;2.70;;
61644;SDS011;47553;52.428;13.382;2022-09-09T07:27:17;7.90;;;2.83;;
61644;SDS011;47553;52.428;13.382;2022-09-09T07:29:19;7.97;;;2.72;;
61644;SDS011;47553;52.428;13.382;2022-09-09T07:31:22;8.90;;;2.75;;
61644;SDS011;47553;52.428;13.382;2022-09-09T07:33:25;6.50;;;2.30;;
61644;SDS011;47553;52.428;13.382;2022-09-09T07:35:27;8.35;;;2.75;;
61644;SDS011;47553;52.428;13.382;2022-09-09T07:37:29;4.85;;;2.33;;
61644;SDS011;47553;52.428;13.382;2022-09-09T07:39:32;6.95;;;2.75;;
61644;SDS011;47553;52.428;13.382;2022-09-09T07:41:34;6.07;;;2.50;;
61644;SDS011;47553;52.428;13.382;2022-09-09T07:43:38;4.80;;;2.00;;
61644;SDS011;47553;52.428;13.382;2022-09-09T07:45:40;6.32;;;2.28;;
61644;SDS011;47553;52.428;13.382;2022-09-09T07:47:42;4.88;;;1.80;;
61644;SDS011;47553;52.428;13.382;2022-09-09T07:49:43;5.32;;;1.65;;
61644;SDS011;47553;52.428;13.382;2022-09-09T07:51:45;5.20;;;2.35;;
61644;SDS011;47553;52.428;13.382;2022-09-09T07:53:48;5.50;;;2.00;;
61644;SDS011;47553;52.428;13.382;2022-09-09T07:55:54;6.07;;;2.28;;
61644;SDS011;47553;52.428;13.382;2022-09-09T07:57:55;5.07;;;1.92;;
61644;SDS011;47553;52.428;13.382;2022-09-09T07:59:57;6.68;;;2.40;;
61644;SDS011;47553;52.428;13.382;2022-09-09T08:01:59;6.70;;;1.95;;
61644;SDS011;47553;52.428;13.382;2022-09-09T08:04:01;5.60;;;2.17;;
61644;SDS011;47553;52.428;13.382;2022-09-09T08:06:05;8.32;;;2.70;;
61644;SDS011;47553;52.428;13.382;2022-09-09T08:08:08;6.00;;;2.33;;
61644;SDS011;47553;52.428;13.382;2022-09-09T08:10:10;6.30;;;2.53;;
61644;SDS011;47553;52.428;13.382;2022-09-09T08:12:12;5.65;;;2.15;;
61644;SDS011;47553;52.428;13.382;2022-09-09T08:14:14;6.75;;;2.25;;
61644;SDS011;47553;52.428;13.382;2022-09-09T08:16:16;6.13;;;2.13;;
61644;SDS011;47553;52.428;13.382;2022-09-09T08:18:19;8.80;;;2.17;;
61644;SDS011;47553;52.428;13.382;2022-09-09T08:20:21;4.78;;;2.00;;
61644;SDS011;47553;52.428;13.382;2022-09-09T08:22:22;7.13;;;2.30;;
61644;SDS011;47553;52.428;13.382;2022-09-09T08:24:24;6.85;;;2.92;;
61644;SDS011;47553;52.428;13.382;2022-09-09T08:26:26;5.60;;;2.00;;
61644;SDS011;47553;52.428;13.382;2022-09-09T08:28:30;8.52;;;1.98;;
61644;SDS011;47553;52.428;13.382;2022-09-09T08:30:32;6.57;;;2.30;;
61644;SDS011;47553;52.428;13.382;2022-09-09T08:32:33;6.60;;;2.47;;
61644;SDS011;47553;52.428;13.382;2022-09-09T08:34:35;6.78;;;2.10;;
61644;SDS011;47553;52.428;13.382;2022-09-09T08:36:42;6.20;;;2.40;;
61644;SDS011;47553;52.428;13.382;2022-09-09T08:38:47;9.57;;;2.42;;
61644;SDS011;47553;52.428;13.382;2022-09-09T08:40:49;8.30;;;2.38;;
61644;SDS011;47553;52.428;13.382;2022-09-09T08:42:55;8.70;;;2.42;;
61644;SDS011;47553;52.428;13.382;2022-09-09T08:45:14;6.75;;;2.45;;
61644;SDS011;47553;52.428;13.382;2022-09-09T08:47:23;5.68;;;2.10;;
61644;SDS011;47553;52.428;13.382;2022-09-09T08:49:38;5.13;;;1.73;;
61644;SDS011;47553;52.428;13.382;2022-09-09T08:51:50;4.70;;;1.80;;
61644;SDS011;47553;52.428;13.382;2022-09-09T08:53:52;4.78;;;1.88;;
61644;SDS011;47553;52.428;13.382;2022-09-09T08:58:04;5.05;;;1.85;;
61644;SDS011;47553;52.428;13.382;2022-09-09T09:00:13;8.18;;;2.15;;
61644;SDS011;47553;52.428;13.382;2022-09-09T09:02:15;5.38;;;1.90;;
61644;SDS011;47553;52.428;13.382;2022-09-09T09:04:26;6.28;;;2.00;;
61644;SDS011;47553;52.428;13.382;2022-09-09T09:06:42;5.97;;;1.80;;
61644;SDS011;47553;52.428;13.382;2022-09-09T09:08:51;7.93;;;1.90;;
61644;SDS011;47553;52.428;13.382;2022-09-09T09:11:02;5.32;;;1.85;;
61644;SDS011;47553;52.428;13.382;2022-09-09T09:13:03;7.85;;;2.33;;
61644;SDS011;47553;52.428;13.382;2022-09-09T09:15:11;8.13;;;2.13;;
61644;SDS011;47553;52.428;13.382;2022-09-09T09:17:19;6.45;;;2.30;;
61644;SDS011;47553;52.428;13.382;2022-09-09T09:19:24;5.82;;;2.20;;
61644;SDS011;47553;52.428;13.382;2022-09-09T09:21:29;5.43;;;2.25;;
61644;SDS011;47553;52.428;13.382;2022-09-09T09:23:39;6.68;;;2.10;;
61644;SDS011;47553;52.428;13.382;2022-09-09T09:25:45;6.43;;;1.80;;
61644;SDS011;47553;52.428;13.382;2022-09-09T09:27:49;5.07;;;1.60;;
61644;SDS011;47553;52.428;13.382;2022-09-09T09:29:59;4.78;;;1.65;;
61644;SDS011;47553;52.428;13.382;2022-09-09T09:32:23;5.20;;;1.70;;
61644;SDS011;47553;52.428;13.382;2022-09-09T09:34:27;6.03;;;2.10;;
61644;SDS011;47553;52.428;13.382;2022-09-09T09:36:33;4.38;;;1.95;;
61644;SDS011;47553;52.428;13.382;2022-09-09T09:38:36;5.18;;;1.83;;
61644;SDS011;47553;52.428;13.382;2022-09-09T09:40:58;5.60;;;1.80;;
61644;SDS011;47553;52.428;13.382;2022-09-09T09:43:00;6.55;;;2.35;;
61644;SDS011;47553;52.428;13.382;2022-09-09T09:45:07;7.32;;;1.60;;
61644;SDS011;47553;52.428;13.382;2022-09-09T09:47:11;7.65;;;2.10;;
61644;SDS011;47553;52.428;13.382;2022-09-09T09:49:15;7.45;;;1.98;;
61644;SDS011;47553;52.428;13.382;2022-09-09T09:51:17;5.85;;;1.80;;
61644;SDS011;47553;52.428;13.382;2022-09-09T09:53:23;6.70;;;1.80;;
61644;SDS011;47553;52.428;13.382;2022-09-09T09:55:26;5.53;;;1.58;;
61644;SDS011;47553;52.428;13.382;2022-09-09T09:57:30;7.43;;;2.10;;
61644;SDS011;47553;52.428;13.382;2022-09-09T09:59:34;6.28;;;2.30;;
61644;SDS011;47553;52.428;13.382;2022-09-09T10:03:49;6.22;;;1.90;;
61644;SDS011;47553;52.428;13.382;2022-09-09T10:05:54;5.32;;;1.50;;
61644;SDS011;47553;52.428;13.382;2022-09-09T10:08:08;9.13;;;1.67;;
61644;SDS011;47553;52.428;13.382;2022-09-09T10:10:13;5.50;;;2.00;;
61644;SDS011;47553;52.428;13.382;2022-09-09T10:12:19;28.23;;;6.50;;
61644;SDS011;47553;52.428;13.382;2022-09-09T10:14:34;11.52;;;2.78;;
61644;SDS011;47553;52.428;13.382;2022-09-09T10:16:46;6.10;;;1.92;;
61644;SDS011;47553;52.428;13.382;2022-09-09T10:19:00;6.88;;;1.70;;
61644;SDS011;47553;52.428;13.382;2022-09-09T10:21:09;6.10;;;2.15;;
61644;SDS011;47553;52.428;13.382;2022-09-09T10:23:27;4.22;;;1.50;;
61644;SDS011;47553;52.428;13.382;2022-09-09T10:25:42;5.45;;;1.83;;
61644;SDS011;47553;52.428;13.382;2022-09-09T10:28:03;7.38;;;2.20;;
61644;SDS011;47553;52.428;13.382;2022-09-09T10:30:19;8.18;;;2.53;;
61644;SDS011;47553;52.428;13.382;2022-09-09T10:32:36;7.65;;;1.83;;
61644;SDS011;47553;52.428;13.382;2022-09-09T10:34:43;6.38;;;2.00;;
61644;SDS011;47553;52.428;13.382;2022-09-09T10:36:57;6.65;;;2.20;;
61644;SDS011;47553;52.428;13.382;2022-09-09T10:39:01;7.45;;;2.50;;
61644;SDS011;47553;52.428;13.382;2022-09-09T10:41:09;7.28;;;2.08;;
61644;SDS011;47553;52.428;13.382;2022-09-09T10:43:24;6.68;;;1.65;;
61644;SDS011;47553;52.428;13.382;2022-09-09T10:45:43;4.80;;;1.60;;
61644;SDS011;47553;52.428;13.382;2022-09-09T10:47:59;4.60;;;1.50;;
61644;SDS011;47553;52.428;13.382;2022-09-09T10:50:18;4.30;;;1.65;;
61644;SDS011;47553;52.428;13.382;2022-09-09T10:52:53;5.43;;;2.00;;
61644;SDS011;47553;52.428;13.382;2022-09-09T10:55:06;6.65;;;2.38;;
61644;SDS011;47553;52.428;13.382;2022-09-09T10:57:15;5.93;;;2.35;;
61644;SDS011;47553;52.428;13.382;2022-09-09T10:59:24;5.80;;;1.70;;
61644;SDS011;47553;52.428;13.382;2022-09-09T11:01:29;4.70;;;1.60;;
61644;SDS011;47553;52.428;13.382;2022-09-09T11:03:37;6.88;;;2.38;;
61644;SDS011;47553;52.428;13.382;2022-09-09T11:05:42;4.15;;;1.23;;
61644;SDS011;47553;52.428;13.382;2022-09-09T11:07:53;4.43;;;1.20;;
61644;SDS011;47553;52.428;13.382;2022-09-09T11:10:00;6.20;;;1.80;;
61644;SDS011;47553;52.428;13.382;2022-09-09T11:12:06;6.38;;;1.65;;
61644;SDS011;47553;52.428;13.382;2022-09-09T11:14:17;5.63;;;1.70;;
61644;SDS011;47553;52.428;13.382;2022-09-09T11:16:24;5.10;;;1.90;;
61644;SDS011;47553;52.428;13.382;2022-09-09T11:18:30;5.13;;;1.58;;
61644;SDS011;47553;52.428;13.382;2022-09-09T11:20:39;5.57;;;1.70;;
61644;SDS011;47553;52.428;13.382;2022-09-09T11:22:43;4.68;;;1.20;;
61644;SDS011;47553;52.428;13.382;2022-09-09T11:24:51;5.80;;;2.20;;
61644;SDS011;47553;52.428;13.382;2022-09-09T11:26:58;4.90;;;1.65;;
61644;SDS011;47553;52.428;13.382;2022-09-09T11:29:13;5.35;;;2.17;;
61644;SDS011;47553;52.428;13.382;2022-09-09T11:31:35;6.03;;;2.03;;
61644;SDS011;47553;52.428;13.382;2022-09-09T11:33:57;7.82;;;2.35;;
61644;SDS011;47553;52.428;13.382;2022-09-09T11:36:11;7.15;;;2.00;;
61644;SDS011;47553;52.428;13.382;2022-09-09T11:38:25;5.20;;;1.55;;
61644;SDS011;47553;52.428;13.382;2022-09-09T11:40:29;6.00;;;2.00;;
61644;SDS011;47553;52.428;13.382;2022-09-09T11:42:33;7.93;;;2.42;;
61644;SDS011;47553;52.428;13.382;2022-09-09T11:44:34;7.50;;;2.17;;
61644;SDS011;47553;52.428;13.382;2022-09-09T11:46:41;5.22;;;1.30;;
61644;SDS011;47553;52.428;13.382;2022-09-09T11:48:43;4.70;;;1.40;;
61644;SDS011;47553;52.428;13.382;2022-09-09T11:50:46;4.70;;;1.30;;
61644;SDS011;47553;52.428;13.382;2022-09-09T11:53:03;4.45;;;1.40;;
61644;SDS011;47553;52.428;13.382;2022-09-09T11:55:10;4.70;;;1.45;;
61644;SDS011;47553;52.428;13.382;2022-09-09T11:57:30;3.88;;;1.35;;
61644;SDS011;47553;52.428;13.382;2022-09-09T11:59:33;6.28;;;2.28;;
61644;SDS011;47553;52.428;13.382;2022-09-09T12:01:39;8.65;;;2.40;;
61644;SDS011;47553;52.428;13.382;2022-09-09T12:03:44;5.80;;;1.70;;
61644;SDS011;47553;52.428;13.382;2022-09-09T12:05:48;5.57;;;2.08;;
61644;SDS011;47553;52.428;13.382;2022-09-09T12:07:52;5.70;;;2.20;;
61644;SDS011;47553;52.428;13.382;2022-09-09T12:09:58;4.95;;;1.73;;
61644;SDS011;47553;52.428;13.382;2022-09-09T12:12:06;5.35;;;1.40;;
61644;SDS011;47553;52.428;13.382;2022-09-09T12:14:19;6.00;;;1.60;;
61644;SDS011;47553;52.428;13.382;2022-09-09T12:16:28;5.97;;;1.90;;
61644;SDS011;47553;52.428;13.382;2022-09-09T12:18:34;4.15;;;1.50;;
61644;SDS011;47553;52.428;13.382;2022-09-09T12:20:37;4.82;;;1.45;;
61644;SDS011;47553;52.428;13.382;2022-09-09T12:22:43;4.78;;;1.73;;
61644;SDS011;47553;52.428;13.382;2022-09-09T12:24:54;4.78;;;1.15;;
61644;SDS011;47553;52.428;13.382;2022-09-09T12:27:05;6.72;;;1.58;;
61644;SDS011;47553;52.428;13.382;2022-09-09T12:29:16;5.00;;;1.30;;
61644;SDS011;47553;52.428;13.382;2022-09-09T12:31:29;5.93;;;2.00;;
61644;SDS011;47553;52.428;13.382;2022-09-09T12:33:36;3.25;;;1.10;;